Time;durP1;ratioP1;P1;durP2;ratioP2;P2;SDS_P1;SDS_P2;PMS_P1;PMS_P2;Temp;Humidity;BMP_temperature;BMP_pressure;BME280_temperature;BME280_humidity;BME280_pressure;Samples;Min_cycle;Max_cycle;Signal;HPM_P1;HPM_P2
2022/05/27 00:00:38;;;;;;;;;;;15.90;99.90;;;;;;5021603;28;20234;-64
2022/05/27 00:03:06;;;;;;;;;;;15.90;99.90;;;;;;5010232;28;20199;-63
2022/05/27 00:05:34;;;;;;;;;;;15.80;99.90;;;;;;5034333;28;20226;-63
2022/05/27 00:08:02;;;;;;;;;;;15.80;99.90;;;;;;5034043;28;20743;-63
2022/05/27 00:10:31;;;;;;;;;;;15.80;99.90;;;;;;5008797;28;20723;-63
2022/05/27 00:12:58;;;;;;;;;;;15.70;99.90;;;;;;5007971;28;20223;-63
2022/05/27 00:15:26;;;;;;;;;;;15.70;99.90;;;;;;5014783;28;20207;-63
2022/05/27 00:17:54;;;;;;;;;;;15.70;99.90;;;;;;5014673;28;20231;-64
2022/05/27 00:20:22;;;;;;;;;;;15.70;99.90;;;;;;5014799;28;20230;-66
2022/05/27 00:22:50;;;;;;;;;;;15.70;99.90;;;;;;5014113;28;20199;-62
2022/05/27 00:25:19;;;;;;;;;;;15.80;99.90;;;;;;5008424;28;20200;-62
2022/05/27 00:27:48;;;;;;;;;;;15.70;99.90;;;;;;5014712;28;20204;-63
2022/05/27 00:30:15;;;;;;;;;;;15.70;99.90;;;;;;5014302;28;20238;-63
2022/05/27 00:32:43;;;;;;;;;;;15.70;99.90;;;;;;5023556;28;20195;-64
2022/05/27 00:35:11;;;;;;;;;;;15.60;99.90;;;;;;5033502;28;20230;-63
2022/05/27 00:37:39;;;;;;;;;;;15.60;99.90;;;;;;5033540;28;20206;-63
2022/05/27 00:40:07;;;;;;;;;;;15.60;99.90;;;;;;5033587;28;20207;-63
2022/05/27 00:42:38;;;;;;;;;;;15.50;99.90;;;;;;5032334;28;20297;-63
2022/05/27 00:45:13;;;;;;;;;;;15.50;99.90;;;;;;5033216;28;20630;-63
2022/05/27 00:47:42;;;;;;;;;;;15.50;99.90;;;;;;5031963;28;20273;-63
2022/05/27 00:50:11;;;;;;;;;;;15.50;99.90;;;;;;5033021;28;20203;-62
2022/05/27 00:52:40;;;;;;;;;;;15.50;99.90;;;;;;5032037;28;20695;-62
2022/05/27 00:55:10;;;;;;;;;;;15.50;99.90;;;;;;5032883;28;20286;-63
2022/05/27 00:57:40;;;;;;;;;;;15.50;99.90;;;;;;5033067;28;20245;-62
2022/05/27 01:00:13;;;;;;;;;;;15.40;99.90;;;;;;5030382;28;20238;-62
2022/05/27 01:02:41;;;;;;;;;;;15.40;99.90;;;;;;5022456;28;20261;-62
2022/05/27 01:05:11;;;;;;;;;;;15.40;99.90;;;;;;5030102;28;20207;-62
2022/05/27 01:07:39;;;;;;;;;;;15.40;99.90;;;;;;5032847;28;20242;-62
2022/05/27 01:10:08;;;;;;;;;;;15.30;99.90;;;;;;5032563;28;20750;-62
2022/05/27 01:12:49;;;;;;;;;;;15.30;99.90;;;;;;5031545;28;20711;-64
2022/05/27 01:15:24;;;;;;;;;;;15.20;99.90;;;;;;5032687;28;20622;-63
2022/05/27 01:17:58;;;;;;;;;;;15.20;99.90;;;;;;5032408;28;20661;-63
2022/05/27 01:20:29;;;;;;;;;;;15.20;99.90;;;;;;5032556;28;20272;-62
2022/05/27 01:23:07;;;;;;;;;;;15.20;99.90;;;;;;5032292;28;20194;-63
2022/05/27 01:25:53;;;;;;;;;;;15.30;99.90;;;;;;5032417;28;20241;-63
2022/05/27 01:28:24;;;;;;;;;;;15.20;99.90;;;;;;5025230;28;20258;-63
2022/05/27 01:30:55;;;;;;;;;;;15.20;99.90;;;;;;5023460;28;20208;-62
2022/05/27 01:33:28;;;;;;;;;;;15.20;99.90;;;;;;5027691;28;20286;-62
2022/05/27 01:36:01;;;;;;;;;;;15.10;99.90;;;;;;5032179;28;20238;-63
2022/05/27 01:38:34;;;;;;;;;;;15.10;99.90;;;;;;5013362;28;20195;-63
2022/05/27 01:41:04;;;;;;;;;;;15.00;99.90;;;;;;5007407;28;20203;-61
2022/05/27 01:43:37;;;;;;;;;;;15.00;99.90;;;;;;5012538;28;20282;-63
2022/05/27 01:46:09;;;;;;;;;;;14.90;99.90;;;;;;5013020;28;20665;-63
2022/05/27 01:48:39;;;;;;;;;;;14.90;99.90;;;;;;5013020;28;20237;-64
2022/05/27 01:51:10;;;;;;;;;;;15.10;99.90;;;;;;5013022;28;20195;-63
2022/05/27 01:53:41;;;;;;;;;;;15.20;99.90;;;;;;5012309;28;20286;-63
2022/05/27 01:56:11;;;;;;;;;;;15.10;99.90;;;;;;5012604;28;20207;-63
2022/05/27 01:58:40;;;;;;;;;;;15.10;99.90;;;;;;5012699;28;20219;-62
2022/05/27 02:01:12;;;;;;;;;;;15.10;99.90;;;;;;5015735;28;20286;-63
2022/05/27 02:03:42;;;;;;;;;;;15.10;99.90;;;;;;5022173;28;20264;-63
2022/05/27 02:06:11;;;;;;;;;;;15.20;99.90;;;;;;5031461;28;20237;-63
2022/05/27 02:08:42;;;;;;;;;;;15.20;99.90;;;;;;5031537;28;20238;-62
2022/05/27 02:11:12;;;;;;;;;;;15.10;99.90;;;;;;5031644;28;20234;-62
2022/05/27 02:13:41;;;;;;;;;;;15.10;99.90;;;;;;5031319;28;20230;-62
2022/05/27 02:16:12;;;;;;;;;;;15.00;99.90;;;;;;5031149;28;20238;-63
2022/05/27 02:18:42;;;;;;;;;;;15.00;99.90;;;;;;5031336;28;20290;-62
2022/05/27 02:21:13;;;;;;;;;;;15.20;99.90;;;;;;5031474;28;20206;-62
2022/05/27 02:23:43;;;;;;;;;;;15.20;99.90;;;;;;5005587;28;20294;-63
2022/05/27 02:26:13;;;;;;;;;;;15.30;99.90;;;;;;5006311;28;20238;-63
2022/05/27 02:28:43;;;;;;;;;;;15.30;99.90;;;;;;5007057;28;20269;-62
2022/05/27 02:31:15;;;;;;;;;;;15.50;99.90;;;;;;5012233;28;20195;-63
2022/05/27 02:36:33;;;;;;;;;;;15.60;99.90;;;;;;5031361;28;20234;-62
2022/05/27 02:39:01;;;;;;;;;;;15.50;99.90;;;;;;5031139;28;20260;-62
2022/05/27 02:41:31;;;;;;;;;;;15.50;99.90;;;;;;5030713;28;20195;-62
2022/05/27 02:44:05;;;;;;;;;;;15.50;99.90;;;;;;5030352;28;20281;-62
2022/05/27 02:46:37;;;;;;;;;;;15.50;99.90;;;;;;5031288;28;20242;-62
2022/05/27 02:49:08;;;;;;;;;;;15.60;99.90;;;;;;5031140;28;20325;-62
2022/05/27 02:51:40;;;;;;;;;;;15.70;99.90;;;;;;5030641;28;20195;-62
2022/05/27 02:54:11;;;;;;;;;;;15.70;99.90;;;;;;5030567;28;20698;-62
2022/05/27 02:56:43;;;;;;;;;;;15.90;99.90;;;;;;5031119;28;20245;-63
2022/05/27 02:59:14;;;;;;;;;;;15.90;99.90;;;;;;5030930;28;20718;-63
2022/05/27 03:01:43;;;;;;;;;;;16.00;99.90;;;;;;5012229;28;20207;-62
2022/05/27 03:04:11;;;;;;;;;;;16.00;99.90;;;;;;5013827;28;20202;-63
2022/05/27 03:06:44;;;;;;;;;;;15.90;99.90;;;;;;5025244;28;20206;-62
2022/05/27 03:09:16;;;;;;;;;;;15.90;99.90;;;;;;5030617;28;20252;-63
2022/05/27 03:11:48;;;;;;;;;;;15.90;99.90;;;;;;5033215;28;20234;-62
2022/05/27 03:14:24;;;;;;;;;;;15.90;99.90;;;;;;5034353;28;20230;-62
2022/05/27 03:16:59;;;;;;;;;;;15.80;99.90;;;;;;5034772;28;20289;-62
2022/05/27 03:19:33;;;;;;;;;;;15.80;99.90;;;;;;5035192;28;20655;-63
2022/05/27 03:22:09;;;;;;;;;;;15.80;99.90;;;;;;5014824;28;20223;-63
2022/05/27 03:24:43;;;;;;;;;;;15.80;99.90;;;;;;5015870;28;20223;-63
2022/05/27 03:27:15;;;;;;;;;;;15.60;99.90;;;;;;5015918;28;20293;-62
2022/05/27 03:29:46;;;;;;;;;;;15.50;99.90;;;;;;5015724;28;20314;-63
2022/05/27 03:32:18;;;;;;;;;;;15.30;99.90;;;;;;5018080;28;20207;-62
2022/05/27 03:34:49;;;;;;;;;;;15.10;99.90;;;;;;5019039;28;20294;-62
2022/05/27 03:37:22;;;;;;;;;;;14.80;99.90;;;;;;5015707;28;20649;-62
2022/05/27 03:39:54;;;;;;;;;;;14.80;99.90;;;;;;5015512;28;20207;-62
2022/05/27 03:42:24;;;;;;;;;;;14.80;99.90;;;;;;5014583;28;20203;-62
2022/05/27 03:44:56;;;;;;;;;;;14.80;99.90;;;;;;5015389;28;20730;-62
2022/05/27 03:47:27;;;;;;;;;;;14.70;99.90;;;;;;5009158;28;20254;-62
2022/05/27 03:49:54;;;;;;;;;;;14.70;99.90;;;;;;5015268;28;20287;-62
2022/05/27 03:52:24;;;;;;;;;;;14.60;99.90;;;;;;5014290;28;20239;-62
2022/05/27 03:54:51;;;;;;;;;;;14.70;99.90;;;;;;5014949;28;20286;-63
2022/05/27 03:57:20;;;;;;;;;;;14.60;99.90;;;;;;5015350;28;20230;-62
2022/05/27 03:59:48;;;;;;;;;;;14.50;99.90;;;;;;5015307;28;20223;-62
2022/05/27 04:02:16;;;;;;;;;;;14.50;99.90;;;;;;5013834;28;20237;-63
2022/05/27 04:04:45;;;;;;;;;;;14.50;99.90;;;;;;5022369;28;20204;-62
2022/05/27 04:07:13;;;;;;;;;;;14.80;99.90;;;;;;5014954;28;20232;-62
2022/05/27 04:09:41;;;;;;;;;;;14.90;99.90;;;;;;5014884;28;20267;-62
2022/05/27 04:12:09;;;;;;;;;;;14.90;99.90;;;;;;5014077;28;20235;-62
2022/05/27 04:14:37;;;;;;;;;;;14.90;99.90;;;;;;5015117;28;20282;-62
2022/05/27 04:19:51;;;;;;;;;;;14.90;99.90;;;;;;5014732;28;20738;-62
2022/05/27 04:22:19;;;;;;;;;;;15.00;99.90;;;;;;5013639;28;20936;-62
2022/05/27 04:24:46;;;;;;;;;;;15.20;99.90;;;;;;5014943;28;20202;-63
2022/05/27 04:27:15;;;;;;;;;;;15.20;99.90;;;;;;5014751;28;20207;-62
2022/05/27 04:29:44;;;;;;;;;;;15.40;99.90;;;;;;5014636;28;20715;-62
2022/05/27 04:32:12;;;;;;;;;;;15.50;99.90;;;;;;5016255;28;20230;-63
2022/05/27 04:34:40;;;;;;;;;;;15.50;99.90;;;;;;5017293;28;20206;-62
2022/05/27 04:37:10;;;;;;;;;;;15.70;99.90;;;;;;5014793;28;20207;-61
2022/05/27 04:39:38;;;;;;;;;;;15.70;99.90;;;;;;5014538;28;20199;-62
2022/05/27 04:42:06;;;;;;;;;;;16.00;99.90;;;;;;5013580;28;20754;-62
2022/05/27 04:44:34;;;;;;;;;;;16.10;99.90;;;;;;5014304;28;20227;-62
2022/05/27 04:47:02;;;;;;;;;;;16.10;99.90;;;;;;5014036;28;20258;-62
2022/05/27 04:52:16;;;;;;;;;;;16.30;99.90;;;;;;5013345;28;20269;-62
2022/05/27 04:54:44;;;;;;;;;;;16.30;99.90;;;;;;5014197;28;20191;-62
2022/05/27 04:57:14;;;;;;;;;;;16.30;99.90;;;;;;5014053;28;20298;-62
2022/05/27 04:59:43;;;;;;;;;;;16.10;99.90;;;;;;5014176;28;20235;-62
2022/05/27 05:02:10;;;;;;;;;;;16.00;99.90;;;;;;5014216;28;20246;-63
2022/05/27 05:04:38;;;;;;;;;;;16.10;99.90;;;;;;5029173;28;20290;-63
2022/05/27 05:07:08;;;;;;;;;;;16.10;99.90;;;;;;5033046;28;20306;-64
2022/05/27 05:09:37;;;;;;;;;;;16.10;99.90;;;;;;5032940;28;20253;-64
2022/05/27 05:12:06;;;;;;;;;;;16.10;99.90;;;;;;5012947;28;20207;-64
2022/05/27 05:14:34;;;;;;;;;;;16.00;99.90;;;;;;5007144;28;20691;-64
2022/05/27 05:17:02;;;;;;;;;;;16.00;99.90;;;;;;5007464;28;20235;-63
2022/05/27 05:19:29;;;;;;;;;;;15.90;99.90;;;;;;5007317;28;20587;-64
2022/05/27 05:21:57;;;;;;;;;;;15.90;99.90;;;;;;5006995;28;20256;-64
2022/05/27 05:24:26;;;;;;;;;;;15.90;99.90;;;;;;5013204;28;20598;-63
2022/05/27 05:26:55;;;;;;;;;;;15.90;99.90;;;;;;5007276;28;20207;-63
2022/05/27 05:29:23;;;;;;;;;;;15.90;99.90;;;;;;5007399;28;20394;-63
2022/05/27 05:31:51;;;;;;;;;;;16.00;99.90;;;;;;5012752;28;20286;-64
2022/05/27 05:34:19;;;;;;;;;;;16.00;99.90;;;;;;5025525;28;20203;-64
2022/05/27 05:36:46;;;;;;;;;;;16.10;99.90;;;;;;5013478;28;20203;-63
2022/05/27 05:39:14;;;;;;;;;;;16.10;99.90;;;;;;5013751;28;20199;-63
2022/05/27 05:41:42;;;;;;;;;;;16.20;99.90;;;;;;5014218;28;20291;-63
2022/05/27 05:44:12;;;;;;;;;;;16.20;99.90;;;;;;5012509;28;20230;-64
2022/05/27 05:46:40;;;;;;;;;;;16.30;99.90;;;;;;5013246;28;20593;-63
2022/05/27 05:49:08;;;;;;;;;;;16.50;99.90;;;;;;5013207;28;20624;-62
2022/05/27 05:51:35;;;;;;;;;;;16.50;99.90;;;;;;5013098;28;20209;-63
2022/05/27 05:54:03;;;;;;;;;;;16.60;99.90;;;;;;5012596;28;20203;-63
2022/05/27 05:56:33;;;;;;;;;;;16.70;99.90;;;;;;5013089;28;20231;-63
2022/05/27 05:59:01;;;;;;;;;;;16.80;99.90;;;;;;5013531;28;20295;-64
2022/05/27 06:01:30;;;;;;;;;;;16.90;99.90;;;;;;5012760;28;20199;-63
2022/05/27 06:03:58;;;;;;;;;;;17.00;99.90;;;;;;5022107;28;20278;-63
2022/05/27 06:06:26;;;;;;;;;;;16.90;99.90;;;;;;5031652;28;20292;-64
2022/05/27 06:08:54;;;;;;;;;;;16.80;99.90;;;;;;5031925;28;20242;-63
2022/05/27 06:11:21;;;;;;;;;;;16.70;99.90;;;;;;5031741;28;20230;-63
2022/05/27 06:13:50;;;;;;;;;;;16.80;99.90;;;;;;5030786;28;20245;-64
2022/05/27 06:16:17;;;;;;;;;;;16.80;99.90;;;;;;5031846;28;20230;-63
2022/05/27 06:18:47;;;;;;;;;;;16.80;99.90;;;;;;5031600;28;20475;-63
2022/05/27 06:21:15;;;;;;;;;;;16.90;99.90;;;;;;5031650;28;20286;-63
2022/05/27 06:23:44;;;;;;;;;;;16.90;99.90;;;;;;5030767;28;20298;-63
2022/05/27 06:26:12;;;;;;;;;;;16.80;99.90;;;;;;5031762;28;20584;-63
2022/05/27 06:34:25;;;;;;;;;;;16.70;99.90;;;;;;5018860;28;20815;-63
2022/05/27 06:36:54;;;;;;;;;;;16.80;99.90;;;;;;5007018;28;20299;-63
2022/05/27 06:39:23;;;;;;;;;;;16.80;99.90;;;;;;5012441;28;20234;-63
2022/05/27 06:41:51;;;;;;;;;;;16.90;99.90;;;;;;5012222;28;20277;-62
2022/05/27 06:44:19;;;;;;;;;;;17.00;99.90;;;;;;5011411;28;20209;-63
2022/05/27 06:46:49;;;;;;;;;;;17.20;99.90;;;;;;5011375;28;20234;-63
2022/05/27 06:49:18;;;;;;;;;;;17.30;99.90;;;;;;5012232;28;20200;-63
2022/05/27 06:51:47;;;;;;;;;;;17.40;99.90;;;;;;5012035;28;20298;-63
2022/05/27 06:54:15;;;;;;;;;;;17.50;99.90;;;;;;5011040;28;20326;-63
2022/05/27 06:56:44;;;;;;;;;;;17.50;99.90;;;;;;5012013;28;20265;-64
2022/05/27 06:59:12;;;;;;;;;;;17.50;99.90;;;;;;5012129;28;20282;-63
2022/05/27 07:01:40;;;;;;;;;;;17.60;99.90;;;;;;5011272;28;20596;-63
2022/05/27 07:04:07;;;;;;;;;;;17.50;99.90;;;;;;5021872;28;20277;-63
2022/05/27 07:06:38;;;;;;;;;;;17.40;99.90;;;;;;5030943;28;20234;-63
2022/05/27 07:09:06;;;;;;;;;;;17.30;99.90;;;;;;5031062;28;20202;-63
2022/05/27 07:11:35;;;;;;;;;;;17.20;99.90;;;;;;5030794;28;20209;-63
2022/05/27 07:14:03;;;;;;;;;;;17.10;99.90;;;;;;5029891;28;20624;-63
2022/05/27 07:16:31;;;;;;;;;;;17.10;99.90;;;;;;5030607;28;20223;-63
2022/05/27 07:19:20;;;;;;;;;;;17.10;99.90;;;;;;5031071;28;20206;-63
2022/05/27 07:21:49;;;;;;;;;;;17.00;99.90;;;;;;5030780;28;20297;-64
2022/05/27 07:24:18;;;;;;;;;;;17.00;99.90;;;;;;5029932;28;20290;-63
2022/05/27 07:26:47;;;;;;;;;;;17.20;99.90;;;;;;5030802;28;20714;-63
2022/05/27 07:29:14;;;;;;;;;;;17.30;99.90;;;;;;5030480;28;20202;-64
2022/05/27 07:31:43;;;;;;;;;;;17.40;99.90;;;;;;5021504;28;20310;-63
2022/05/27 07:34:11;;;;;;;;;;;17.40;99.90;;;;;;5023648;28;20195;-64
2022/05/27 07:36:39;;;;;;;;;;;17.50;99.90;;;;;;5011783;28;20235;-63
2022/05/27 07:39:08;;;;;;;;;;;17.50;99.90;;;;;;5011858;28;20242;-63
2022/05/27 07:41:37;;;;;;;;;;;17.60;99.90;;;;;;5011573;28;20726;-63
2022/05/27 07:44:06;;;;;;;;;;;17.70;99.90;;;;;;5010626;28;20235;-64
2022/05/27 07:46:34;;;;;;;;;;;17.70;99.90;;;;;;5011412;28;20204;-64
2022/05/27 07:49:04;;;;;;;;;;;17.60;99.90;;;;;;5011723;28;20668;-64
2022/05/27 07:51:51;;;;;;;;;;;17.50;99.90;;;;;;5011760;28;20740;-63
2022/05/27 07:54:20;;;;;;;;;;;17.50;99.90;;;;;;5011213;28;20265;-63
2022/05/27 07:56:48;;;;;;;;;;;17.40;99.90;;;;;;5012565;28;20309;-64
2022/05/27 07:59:16;;;;;;;;;;;17.40;99.90;;;;;;5015310;28;20234;-64
2022/05/27 08:01:44;;;;;;;;;;;17.40;99.90;;;;;;5015720;28;20269;-64
2022/05/27 08:04:12;;;;;;;;;;;17.40;99.90;;;;;;5021020;28;20285;-64
2022/05/27 08:06:40;;;;;;;;;;;17.40;99.90;;;;;;5015189;28;20200;-64
2022/05/27 08:09:12;;;;;;;;;;;17.60;99.90;;;;;;5014810;28;20207;-64
2022/05/27 08:11:41;;;;;;;;;;;17.60;99.90;;;;;;5015019;28;20234;-65
2022/05/27 08:14:09;;;;;;;;;;;17.70;99.90;;;;;;5014599;28;20238;-63
2022/05/27 08:16:37;;;;;;;;;;;17.80;99.90;;;;;;5014861;28;20249;-64
2022/05/27 08:19:05;;;;;;;;;;;17.90;99.90;;;;;;5014701;28;20203;-64
2022/05/27 08:21:36;;;;;;;;;;;18.00;99.90;;;;;;5014701;28;20634;-64
2022/05/27 08:24:04;;;;;;;;;;;18.00;99.90;;;;;;5014260;28;20742;-64
2022/05/27 08:26:31;;;;;;;;;;;18.00;99.90;;;;;;5014846;28;20222;-64
2022/05/27 08:29:00;;;;;;;;;;;18.10;99.90;;;;;;5014522;28;20238;-64
2022/05/27 08:31:28;;;;;;;;;;;18.20;99.90;;;;;;5014506;28;20237;-64
2022/05/27 08:39:27;;;;;;;;;;;18.70;99.90;;;;;;5014868;28;20238;-64
2022/05/27 08:42:02;;;;;;;;;;;19.00;99.90;;;;;;5014119;28;20250;-64
2022/05/27 08:44:39;;;;;;;;;;;19.20;99.90;;;;;;5014361;28;20242;-64
2022/05/27 08:47:10;;;;;;;;;;;19.30;99.90;;;;;;5014578;28;20195;-64
2022/05/27 08:49:40;;;;;;;;;;;19.20;99.90;;;;;;5014388;28;20207;-64
2022/05/27 08:52:12;;;;;;;;;;;19.10;99.90;;;;;;5013585;28;20211;-65
2022/05/27 08:54:41;;;;;;;;;;;18.80;99.90;;;;;;5014381;28;20286;-63
2022/05/27 08:59:59;;;;;;;;;;;18.50;99.90;;;;;;5013972;28;20282;-63
2022/05/27 09:02:30;;;;;;;;;;;18.30;99.90;;;;;;5009520;28;20203;-64
2022/05/27 09:05:01;;;;;;;;;;;18.30;99.90;;;;;;5013110;28;20204;-63
2022/05/27 09:07:34;;;;;;;;;;;18.30;99.90;;;;;;5026304;28;20277;-64
2022/05/27 09:10:04;;;;;;;;;;;18.30;99.90;;;;;;5031753;28;20238;-66
2022/05/27 09:12:44;;;;;;;;;;;18.10;99.90;;;;;;5032480;28;20643;-64
2022/05/27 09:15:22;;;;;;;;;;;18.00;99.90;;;;;;5032903;28;20722;-65
2022/05/27 09:17:54;;;;;;;;;;;17.90;99.90;;;;;;5032657;28;20245;-64
2022/05/27 09:20:26;;;;;;;;;;;17.90;99.90;;;;;;5032438;28;20298;-63
2022/05/27 09:23:00;;;;;;;;;;;18.00;99.90;;;;;;5031959;28;20256;-64
2022/05/27 09:25:32;;;;;;;;;;;17.90;99.90;;;;;;5032786;28;20241;-63
2022/05/27 09:28:06;;;;;;;;;;;17.90;99.90;;;;;;5032797;28;20230;-64
2022/05/27 09:30:35;;;;;;;;;;;18.00;99.90;;;;;;5032324;28;20285;-64
2022/05/27 09:33:05;;;;;;;;;;;18.20;99.90;;;;;;5023199;28;20587;-64
2022/05/27 09:35:34;;;;;;;;;;;18.20;99.90;;;;;;5027235;28;20294;-63
2022/05/27 09:38:13;;;;;;;;;;;18.40;99.90;;;;;;5032376;28;20202;-63
2022/05/27 09:40:46;;;;;;;;;;;18.40;99.90;;;;;;5032271;28;20195;-63
2022/05/27 09:43:15;;;;;;;;;;;18.50;99.90;;;;;;5031512;28;20253;-65
2022/05/27 09:45:44;;;;;;;;;;;18.60;99.90;;;;;;5032193;28;20249;-64
2022/05/27 09:48:13;;;;;;;;;;;18.50;99.90;;;;;;5032160;28;20227;-64
2022/05/27 09:50:42;;;;;;;;;;;18.50;99.90;;;;;;5032117;28;20202;-64
2022/05/27 09:53:13;;;;;;;;;;;18.40;99.90;;;;;;5031847;28;20241;-63
2022/05/27 09:55:44;;;;;;;;;;;18.40;99.90;;;;;;5032098;28;20230;-65
2022/05/27 09:58:11;;;;;;;;;;;18.30;99.90;;;;;;5032466;28;20311;-64
2022/05/27 10:00:41;;;;;;;;;;;18.30;99.90;;;;;;5031828;28;20745;-64
2022/05/27 10:03:26;;;;;;;;;;;18.20;99.90;;;;;;5021978;28;20203;-64
2022/05/27 10:05:55;;;;;;;;;;;18.20;99.90;;;;;;5015614;28;20264;-65
2022/05/27 10:08:27;;;;;;;;;;;18.40;99.90;;;;;;5012893;28;20218;-64
2022/05/27 10:11:06;;;;;;;;;;;18.40;99.90;;;;;;5013052;28;20230;-64
2022/05/27 10:13:34;;;;;;;;;;;18.40;99.90;;;;;;5012354;28;20711;-64
2022/05/27 10:16:08;;;;;;;;;;;18.50;99.90;;;;;;5012789;28;20207;-65
2022/05/27 10:18:38;;;;;;;;;;;18.50;99.90;;;;;;5012719;28;20630;-64
2022/05/27 10:21:10;;;;;;;;;;;18.50;99.90;;;;;;5012610;28;20203;-64
2022/05/27 10:23:38;;;;;;;;;;;18.50;99.90;;;;;;5012055;28;20290;-64
2022/05/27 10:26:19;;;;;;;;;;;18.50;99.90;;;;;;5012461;28;20203;-64
2022/05/27 10:28:55;;;;;;;;;;;18.50;99.90;;;;;;5012915;28;20211;-66
2022/05/27 10:31:24;;;;;;;;;;;18.60;99.90;;;;;;5012374;28;20242;-64
2022/05/27 10:33:54;;;;;;;;;;;18.80;99.90;;;;;;5014768;28;20198;-63
2022/05/27 10:36:31;;;;;;;;;;;19.00;99.90;;;;;;5028665;28;20298;-64
2022/05/27 10:39:01;;;;;;;;;;;19.20;99.90;;;;;;5012190;28;20281;-64
2022/05/27 10:41:36;;;;;;;;;;;19.30;99.90;;;;;;5006439;28;20203;-63
2022/05/27 10:44:11;;;;;;;;;;;19.30;99.90;;;;;;5011736;28;20720;-64
2022/05/27 10:46:42;;;;;;;;;;;19.60;99.90;;;;;;5012466;28;20630;-64
2022/05/27 10:49:22;;;;;;;;;;;19.70;99.90;;;;;;5012084;28;20238;-64
2022/05/27 10:51:57;;;;;;;;;;;19.70;99.90;;;;;;5012194;28;20299;-64
2022/05/27 10:54:36;;;;;;;;;;;19.60;99.90;;;;;;5012337;28;20218;-65
2022/05/27 11:02:58;;;;;;;;;;;19.70;99.90;;;;;;5015888;28;20206;-64
2022/05/27 11:05:35;;;;;;;;;;;19.90;99.90;;;;;;5015423;28;20202;-64
2022/05/27 11:08:10;;;;;;;;;;;20.00;99.90;;;;;;5031026;28;20610;-64
2022/05/27 11:10:41;;;;;;;;;;;20.20;99.90;;;;;;5030800;28;20234;-64
2022/05/27 11:16:06;;;;;;;;;;;20.40;99.90;;;;;;5030974;28;20234;-64
2022/05/27 11:18:46;;;;;;;;;;;20.30;99.90;;;;;;5030775;28;20194;-63
2022/05/27 11:21:20;;;;;;;;;;;20.00;99.90;;;;;;5030530;28;20203;-63
2022/05/27 11:24:00;;;;;;;;;;;19.80;99.90;;;;;;5030319;28;20245;-63
2022/05/27 11:26:39;;;;;;;;;;;19.90;99.90;;;;;;5030911;28;20486;-63
2022/05/27 11:29:21;;;;;;;;;;;19.80;99.90;;;;;;5005381;28;20663;-63
2022/05/27 11:31:55;;;;;;;;;;;19.70;99.90;;;;;;5012580;28;20333;-63
2022/05/27 11:34:26;;;;;;;;;;;19.80;99.90;;;;;;5020428;28;20616;-63
2022/05/27 11:37:21;;;;;;;;;;;19.80;99.90;;;;;;5032780;28;20668;-65
2022/05/27 11:40:03;;;;;;;;;;;19.70;99.90;;;;;;5010365;28;20692;-64
2022/05/27 11:42:43;;;;;;;;;;;19.30;99.90;;;;;;5010541;28;20207;-64
2022/05/27 11:45:15;;;;;;;;;;;18.80;99.90;;;;;;5015601;28;20203;-65
2022/05/27 11:47:58;;;;;;;;;;;18.30;99.90;;;;;;5015461;28;20227;-65
2022/05/27 11:50:36;;;;;;;;;;;17.80;99.90;;;;;;5015030;28;20725;-64
2022/05/27 11:53:16;;;;;;;;;;;17.30;99.90;;;;;;5015082;28;20287;-64
2022/05/27 11:55:59;;;;;;;;;;;16.90;99.90;;;;;;5015146;28;20242;-63
2022/05/27 11:58:30;;;;;;;;;;;16.50;99.90;;;;;;5015251;28;20827;-63
2022/05/27 12:01:02;;;;;;;;;;;16.40;99.90;;;;;;5014868;28;20289;-63
2022/05/27 12:03:39;;;;;;;;;;;16.40;99.90;;;;;;5024325;28;20226;-63
2022/05/27 12:06:08;;;;;;;;;;;16.50;99.90;;;;;;5021521;28;20209;-62
2022/05/27 12:08:40;;;;;;;;;;;16.50;99.90;;;;;;5009003;28;20557;-63
2022/05/27 12:11:12;;;;;;;;;;;16.50;99.90;;;;;;5014785;28;20238;-63
2022/05/27 12:13:42;;;;;;;;;;;16.40;99.90;;;;;;5014347;28;20286;-63
2022/05/27 12:16:13;;;;;;;;;;;16.70;99.90;;;;;;5015138;28;20233;-64
2022/05/27 12:18:43;;;;;;;;;;;17.00;99.90;;;;;;5014780;28;20203;-64
2022/05/27 12:21:13;;;;;;;;;;;17.40;99.90;;;;;;5014514;28;20237;-65
2022/05/27 12:23:43;;;;;;;;;;;17.90;99.90;;;;;;5014012;28;20298;-64
2022/05/27 12:26:14;;;;;;;;;;;18.20;99.90;;;;;;5014792;28;20223;-64
2022/05/27 12:28:43;;;;;;;;;;;18.60;99.90;;;;;;5014866;28;20234;-65
2022/05/27 12:31:11;;;;;;;;;;;18.90;99.90;;;;;;5014480;28;20281;-64
2022/05/27 12:33:39;;;;;;;;;;;19.00;99.90;;;;;;5016473;28;20206;-64
2022/05/27 12:36:08;;;;;;;;;;;19.30;99.90;;;;;;5028047;28;20289;-64
2022/05/27 12:38:37;;;;;;;;;;;19.50;99.90;;;;;;5033693;28;20230;-64
2022/05/27 12:41:06;;;;;;;;;;;19.60;99.90;;;;;;5033140;28;20637;-65
2022/05/27 12:43:37;;;;;;;;;;;19.80;99.90;;;;;;5031406;28;20226;-65
2022/05/27 12:46:14;;;;;;;;;;;20.10;99.90;;;;;;5033461;28;20199;-64
2022/05/27 12:48:43;;;;;;;;;;;20.00;99.90;;;;;;5033089;28;20199;-63
2022/05/27 12:51:26;;;;;;;;;;;19.90;99.90;;;;;;5033094;28;20203;-64
2022/05/27 12:53:55;;;;;;;;;;;19.60;99.90;;;;;;5032514;28;20687;-64
2022/05/27 13:02:40;;;;;;;;;;;19.20;99.90;;;;;;5029104;28;20261;-64
2022/05/27 13:05:14;;;;;;;;;;;19.10;99.90;;;;;;5012487;28;20211;-64
2022/05/27 13:07:46;;;;;;;;;;;19.00;99.90;;;;;;5032566;28;20260;-64
2022/05/27 13:10:33;;;;;;;;;;;19.00;99.90;;;;;;5032913;28;20191;-64
2022/05/27 13:13:02;;;;;;;;;;;19.10;99.90;;;;;;5032178;28;20230;-64
2022/05/27 13:15:31;;;;;;;;;;;19.50;99.90;;;;;;5032915;28;20213;-64
2022/05/27 13:18:10;;;;;;;;;;;20.20;99.90;;;;;;5032540;28;20206;-65
2022/05/27 13:20:51;;;;;;;;;;;20.90;99.90;;;;;;5032643;28;20202;-64
2022/05/27 13:23:21;;;;;;;;;;;21.30;99.90;;;;;;5031859;28;20202;-64
2022/05/27 13:26:00;;;;;;;;;;;22.00;99.90;;;;;;5033145;28;20569;-64
2022/05/27 13:28:31;;;;;;;;;;;22.30;99.90;;;;;;5032555;28;20198;-65
2022/05/27 13:31:06;;;;;;;;;;;22.60;99.90;;;;;;5032337;28;20217;-64
2022/05/27 13:33:36;;;;;;;;;;;23.20;99.90;;;;;;5021442;28;20687;-64
2022/05/27 13:36:14;;;;;;;;;;;23.40;99.90;;;;;;5022090;28;20203;-65
2022/05/27 13:38:43;;;;;;;;;;;23.70;99.90;;;;;;5032536;28;20207;-64
2022/05/27 13:41:14;;;;;;;;;;;24.10;99.90;;;;;;5032677;28;20611;-65
2022/05/27 13:43:44;;;;;;;;;;;24.70;99.90;;;;;;5031772;28;20202;-64
2022/05/27 13:46:15;;;;;;;;;;;25.10;99.90;;;;;;5032257;28;20627;-64
2022/05/27 13:48:45;;;;;;;;;;;25.10;99.90;;;;;;5032212;28;20643;-64
2022/05/27 13:51:16;;;;;;;;;;;24.70;99.90;;;;;;5031912;28;20617;-64
2022/05/27 13:53:45;;;;;;;;;;;24.80;99.90;;;;;;5031411;28;20206;-64
2022/05/27 13:56:15;;;;;;;;;;;24.70;99.90;;;;;;5031737;28;20680;-64
2022/05/27 13:58:48;;;;;;;;;;;24.50;99.90;;;;;;5032287;28;20649;-64
2022/05/27 14:01:18;;;;;;;;;;;24.50;99.90;;;;;;5006522;28;20230;-65
2022/05/27 14:03:49;;;;;;;;;;;24.10;99.90;;;;;;5013355;28;20294;-64
2022/05/27 14:06:25;;;;;;;;;;;24.40;99.90;;;;;;5025950;28;20214;-64
2022/05/27 14:08:54;;;;;;;;;;;24.80;99.90;;;;;;5032179;28;20219;-64
2022/05/27 14:11:27;;;;;;;;;;;25.00;99.90;;;;;;5032163;28;20238;-64
2022/05/27 14:13:56;;;;;;;;;;;25.20;99.90;;;;;;5031151;28;20253;-65
2022/05/27 14:16:25;;;;;;;;;;;25.30;99.90;;;;;;5031668;28;20207;-64
2022/05/27 14:18:56;;;;;;;;;;;25.40;99.90;;;;;;5031435;28;20264;-64
2022/05/27 14:24:18;;;;;;;;;;;24.60;99.90;;;;;;5030963;28;20293;-64
2022/05/27 14:26:46;;;;;;;;;;;24.20;99.90;;;;;;5031531;28;20285;-64
2022/05/27 14:29:16;;;;;;;;;;;23.80;99.90;;;;;;5031873;28;20482;-63
2022/05/27 14:31:44;;;;;;;;;;;23.40;99.90;;;;;;5012501;28;20647;-64
2022/05/27 14:34:15;;;;;;;;;;;23.00;99.90;;;;;;5014138;28;20702;-63
2022/05/27 14:36:52;;;;;;;;;;;22.60;99.90;;;;;;5028547;28;20198;-64
2022/05/27 14:39:21;;;;;;;;;;;22.40;99.90;;;;;;5031319;28;20627;-64
2022/05/27 14:41:49;;;;;;;;;;;22.10;99.90;;;;;;5030850;28;20199;-64
2022/05/27 14:44:21;;;;;;;;;;;21.90;99.90;;;;;;5030565;28;20237;-64
2022/05/27 14:47:03;;;;;;;;;;;21.50;99.90;;;;;;5031269;28;20215;-63
2022/05/27 14:49:40;;;;;;;;;;;21.30;99.90;;;;;;5030911;28;20202;-64
2022/05/27 14:52:19;;;;;;;;;;;21.20;99.90;;;;;;5030333;28;20242;-63
2022/05/27 14:54:47;;;;;;;;;;;21.20;99.90;;;;;;5031167;28;20293;-63
2022/05/27 14:57:17;;;;;;;;;;;21.10;99.90;;;;;;5031109;28;20245;-63
2022/05/27 14:59:47;;;;;;;;;;;21.30;99.90;;;;;;5030959;28;20285;-63
2022/05/27 15:02:22;;;;;;;;;;;22.00;99.90;;;;;;5028429;28;20246;-64
2022/05/27 15:04:54;;;;;;;;;;;23.00;99.90;;;;;;5011491;28;20199;-64
2022/05/27 15:07:29;;;;;;;;;;;23.70;99.50;;;;;;5009015;28;20199;-64
2022/05/27 15:09:58;;;;;;;;;;;24.00;98.30;;;;;;5016775;28;20253;-64
2022/05/27 15:12:28;;;;;;;;;;;24.40;97.50;;;;;;5011015;28;20633;-64
2022/05/27 15:14:56;;;;;;;;;;;24.50;95.90;;;;;;5011986;28;20656;-64
2022/05/27 15:17:24;;;;;;;;;;;24.60;97.00;;;;;;5012017;28;20203;-65